createdAt,value
2018-07-21T00:00:08.907Z,38.30
2018-07-21T00:02:37.523Z,38.40
2018-07-21T00:05:08.871Z,38.60
2018-07-21T00:07:37.414Z,39.00
2018-07-21T00:10:06.162Z,39.20
2018-07-21T00:12:34.847Z,39.40
2018-07-21T00:17:31.679Z,39.70
2018-07-21T00:20:00.389Z,39.60
2018-07-21T00:22:29.020Z,39.80
2018-07-21T00:24:57.644Z,39.80
2018-07-21T00:27:26.227Z,40.10
2018-07-21T00:29:54.806Z,40.60
2018-07-21T00:32:23.345Z,40.60
2018-07-21T00:34:52.712Z,40.80
2018-07-21T00:37:21.269Z,41.50
2018-07-21T00:39:49.763Z,42.10
2018-07-21T00:42:18.373Z,42.20
2018-07-21T00:44:46.916Z,42.50
2018-07-21T00:47:15.486Z,42.30
2018-07-21T00:49:44.047Z,42.50
2018-07-21T00:52:12.592Z,43.10
2018-07-21T00:54:41.133Z,42.20
2018-07-21T00:57:09.831Z,42.10
2018-07-21T00:59:38.487Z,42.20
2018-07-21T01:02:07.182Z,42.40
2018-07-21T01:04:36.464Z,42.00
2018-07-21T01:07:05.211Z,42.50
2018-07-21T01:09:33.792Z,42.90
2018-07-21T01:12:02.379Z,43.00
2018-07-21T01:14:30.967Z,43.20
2018-07-21T01:16:59.627Z,43.80
2018-07-21T01:19:28.256Z,44.20
2018-07-21T01:21:56.902Z,44.40
2018-07-21T01:24:25.495Z,44.60
2018-07-21T01:29:22.411Z,45.40
2018-07-21T01:31:50.997Z,45.50
2018-07-21T01:34:19.552Z,45.60
2018-07-21T01:36:48.042Z,45.80
2018-07-21T01:39:16.591Z,45.90
2018-07-21T01:41:45.150Z,46.10
2018-07-21T01:46:42.734Z,46.80
2018-07-21T01:49:11.361Z,46.60
2018-07-21T01:51:39.924Z,46.60
2018-07-21T01:54:08.512Z,46.50
2018-07-21T01:56:37.049Z,46.40
2018-07-21T01:59:05.582Z,46.50
2018-07-21T02:01:34.228Z,46.70
2018-07-21T02:04:02.738Z,46.80
2018-07-21T02:06:31.259Z,46.80
2018-07-21T02:08:59.849Z,46.80
2018-07-21T02:11:28.350Z,46.90
2018-07-21T02:16:26.681Z,46.80
2018-07-21T02:18:55.260Z,46.90
2018-07-21T02:26:56.466Z,47.20
2018-07-21T02:29:24.984Z,47.20
2018-07-21T02:31:53.539Z,47.20
2018-07-21T02:34:22.042Z,47.20
2018-07-21T02:36:51.220Z,47.00
2018-07-21T02:39:19.699Z,46.90
2018-07-21T02:41:48.790Z,47.10
2018-07-21T02:44:17.354Z,47.70
2018-07-21T02:46:45.846Z,47.00
2018-07-21T02:49:14.412Z,47.20
2018-07-21T02:51:43.047Z,47.20
2018-07-21T02:54:11.562Z,47.00
2018-07-21T02:56:40.176Z,47.60
2018-07-21T02:59:08.707Z,46.70
2018-07-21T03:01:37.249Z,46.70
2018-07-21T03:04:05.843Z,46.70
2018-07-21T03:06:34.393Z,46.60
2018-07-21T03:09:03.048Z,46.60
2018-07-21T03:11:31.601Z,46.50
2018-07-21T03:14:00.218Z,46.30
2018-07-21T03:16:28.855Z,46.30
2018-07-21T03:18:57.386Z,46.20
2018-07-21T03:21:25.939Z,46.30
2018-07-21T03:23:54.467Z,46.20
2018-07-21T03:26:22.975Z,45.80
2018-07-21T03:28:51.471Z,45.20
2018-07-21T03:31:20.367Z,45.10
2018-07-21T03:33:48.890Z,45.40
2018-07-21T03:36:27.477Z,45.60
2018-07-21T03:41:30.983Z,45.60
2018-07-21T03:44:01.431Z,45.70
2018-07-21T03:46:29.957Z,45.20
2018-07-21T03:49:00.331Z,45.00
2018-07-21T03:51:28.923Z,44.90
2018-07-21T03:53:57.512Z,44.50
2018-07-21T03:56:26.130Z,44.10
2018-07-21T03:58:56.685Z,44.20
2018-07-21T04:01:25.244Z,44.20
2018-07-21T04:03:53.789Z,44.30
2018-07-21T04:06:22.320Z,44.40
2018-07-21T04:08:50.848Z,44.30
2018-07-21T04:11:21.371Z,44.10
2018-07-21T04:13:49.914Z,44.30
2018-07-21T04:16:18.449Z,44.10
2018-07-21T04:18:46.921Z,44.30
2018-07-21T04:21:15.484Z,44.10
2018-07-21T04:23:44.081Z,44.10
2018-07-21T04:26:13.539Z,44.10
2018-07-21T04:28:42.065Z,44.20
2018-07-21T04:31:11.708Z,44.20
2018-07-21T04:33:40.296Z,44.10
2018-07-21T04:36:08.835Z,44.00
2018-07-21T04:38:37.413Z,44.10
2018-07-21T04:41:08.160Z,44.10
2018-07-21T04:43:36.738Z,44.10
2018-07-21T04:46:05.382Z,44.20
2018-07-21T04:48:33.929Z,44.30
2018-07-21T04:51:03.037Z,44.20
2018-07-21T04:53:31.602Z,44.30
2018-07-21T04:56:00.835Z,44.30
2018-07-21T04:58:30.104Z,44.20
2018-07-21T05:00:58.813Z,44.10
2018-07-21T05:03:27.323Z,44.10
2018-07-21T05:05:57.984Z,44.00
2018-07-21T05:08:26.564Z,43.90
2018-07-21T05:10:55.120Z,43.70
2018-07-21T05:13:24.808Z,43.70
2018-07-21T05:15:53.322Z,43.70
2018-07-21T05:20:51.563Z,43.70
2018-07-21T05:23:20.411Z,43.60
2018-07-21T05:25:48.911Z,43.60
2018-07-21T05:28:17.512Z,43.60
2018-07-21T05:30:46.335Z,43.60
2018-07-21T05:33:14.871Z,43.60
2018-07-21T05:35:43.543Z,43.50
2018-07-21T05:38:13.139Z,43.40
2018-07-21T05:40:41.807Z,43.40
2018-07-21T05:43:10.404Z,43.10
2018-07-21T05:45:39.995Z,43.00
2018-07-21T05:50:38.188Z,43.60
2018-07-21T05:55:35.105Z,42.50
2018-07-21T05:58:03.846Z,42.50
2018-07-21T06:00:32.656Z,42.60
2018-07-21T06:03:01.324Z,42.70
2018-07-21T06:05:29.856Z,41.90
2018-07-21T06:07:58.455Z,40.90
2018-07-21T06:10:27.027Z,39.70
2018-07-21T06:12:55.623Z,39.70
2018-07-21T06:15:24.419Z,39.60
2018-07-21T06:17:53.016Z,39.70
2018-07-21T06:25:18.137Z,40.80
2018-07-21T06:27:46.758Z,41.40
2018-07-21T06:30:15.342Z,42.60
2018-07-21T06:32:43.907Z,43.50
2018-07-21T06:35:12.593Z,43.40
2018-07-21T06:37:41.129Z,43.60
2018-07-21T06:40:10.791Z,43.40
2018-07-21T06:42:39.316Z,43.30
2018-07-21T06:45:07.944Z,43.40
2018-07-21T06:47:36.632Z,43.60
2018-07-21T06:50:05.653Z,43.00
2018-07-21T06:52:34.328Z,42.00
2018-07-21T06:55:02.848Z,41.40
2018-07-21T06:57:31.415Z,40.70
2018-07-21T06:59:59.932Z,39.70
2018-07-21T07:02:28.571Z,39.50
2018-07-21T07:04:57.110Z,39.30
2018-07-21T07:07:25.735Z,39.00
2018-07-21T07:09:54.267Z,39.00
2018-07-21T07:12:22.812Z,38.90
2018-07-21T07:14:52.108Z,39.10
2018-07-21T07:17:20.639Z,39.30
2018-07-21T07:19:49.227Z,39.10
2018-07-21T07:22:17.891Z,39.20
2018-07-21T07:27:15.469Z,40.10
2018-07-21T07:32:12.559Z,39.70
2018-07-21T07:34:41.326Z,41.00
2018-07-21T07:39:38.356Z,40.70
2018-07-21T07:42:06.986Z,40.50
2018-07-21T07:47:03.773Z,40.20
2018-07-21T07:49:32.387Z,40.10
2018-07-21T07:52:00.995Z,40.10
2018-07-21T07:54:29.545Z,40.10
2018-07-21T07:56:58.467Z,40.00
2018-07-21T08:01:56.139Z,40.60
2018-07-21T08:06:53.372Z,40.70
2018-07-21T08:09:22.268Z,40.80
2018-07-21T08:11:50.852Z,40.80
2018-07-21T08:14:19.467Z,40.70
2018-07-21T08:16:49.275Z,40.70
2018-07-21T08:21:46.085Z,40.70
2018-07-21T08:24:14.643Z,40.60
2018-07-21T08:26:43.270Z,40.60
2018-07-21T08:31:40.158Z,40.40
2018-07-21T08:36:36.923Z,40.20
2018-07-21T08:39:08.271Z,39.80
2018-07-21T08:41:36.924Z,40.10
2018-07-21T08:44:05.667Z,39.90
2018-07-21T11:33:12.777Z,35.80
2018-07-21T11:35:41.563Z,35.30
2018-07-21T11:38:25.797Z,34.90
2018-07-21T11:40:54.463Z,34.60
2018-07-21T11:49:22.039Z,33.90
2018-07-21T11:52:02.411Z,33.40
2018-07-21T12:01:32.564Z,32.80
2018-07-21T12:04:02.287Z,32.70
2018-07-21T12:06:30.942Z,32.50
2018-07-21T12:08:59.496Z,32.40
2018-07-21T12:11:28.051Z,32.20
2018-07-21T12:13:56.615Z,32.20
2018-07-21T12:16:25.399Z,31.90
2018-07-21T12:18:54.097Z,32.00
2018-07-21T12:21:22.712Z,32.00
2018-07-21T12:24:01.040Z,32.30
2018-07-21T12:26:42.161Z,31.90
2018-07-21T12:29:16.624Z,32.10
2018-07-21T12:31:56.604Z,31.60
2018-07-21T12:34:39.503Z,31.60
2018-07-21T12:37:08.250Z,31.40
2018-07-21T12:39:37.375Z,31.50
2018-07-21T12:42:30.465Z,31.50
2018-07-21T12:44:59.959Z,31.00
2018-07-21T12:47:28.525Z,30.90
2018-07-21T12:52:36.988Z,30.40
2018-07-21T12:55:05.812Z,30.10
2018-07-21T12:57:34.421Z,29.90
2018-07-21T13:03:00.407Z,29.70
2018-07-21T13:05:28.951Z,29.60
2018-07-21T13:08:19.346Z,29.60
2018-07-21T13:11:07.548Z,29.30
2018-07-21T13:13:49.135Z,29.00
2018-07-21T13:31:01.194Z,29.50
2018-07-21T13:34:28.568Z,29.40
2018-07-21T13:36:57.174Z,29.70
2018-07-21T13:42:18.560Z,29.10
2018-07-21T13:44:47.825Z,30.00
2018-07-21T13:47:16.738Z,29.40
2018-07-21T13:49:45.552Z,29.40
2018-07-21T13:52:14.251Z,29.30
2018-07-21T13:54:42.983Z,29.10
2018-07-21T13:57:11.569Z,29.30
2018-07-21T14:02:09.900Z,29.30
2018-07-21T14:04:38.685Z,29.30
2018-07-21T14:07:07.377Z,29.30
2018-07-21T14:09:36.029Z,29.50
2018-07-21T14:12:06.084Z,29.30
2018-07-21T14:14:35.085Z,29.60
2018-07-21T14:17:05.539Z,29.70
2018-07-21T14:19:34.553Z,29.60
2018-07-21T14:22:03.891Z,29.50
2018-07-21T14:27:00.995Z,29.30
2018-07-21T14:29:29.648Z,29.50
2018-07-21T14:31:58.444Z,29.30
2018-07-21T14:34:27.123Z,29.40
2018-07-21T14:36:55.715Z,29.60
2018-07-21T14:39:24.329Z,29.60
2018-07-21T14:41:52.974Z,29.70
2018-07-21T14:44:21.663Z,29.80
2018-07-21T14:46:50.760Z,29.80
2018-07-21T15:05:01.236Z,30.00
2018-07-21T15:10:33.220Z,30.10
2018-07-21T15:13:01.911Z,30.00
2018-07-21T15:15:30.855Z,30.70
2018-07-21T15:17:59.831Z,30.00
2018-07-21T15:20:29.475Z,30.10
2018-07-21T15:22:58.199Z,30.50
2018-07-21T15:25:27.010Z,30.80
2018-07-21T15:27:55.740Z,29.80
2018-07-21T15:30:24.535Z,29.90
2018-07-21T15:32:53.146Z,29.90
2018-07-21T15:35:22.172Z,29.80
2018-07-21T15:37:52.397Z,29.80
2018-07-21T15:40:23.572Z,29.80
2018-07-21T15:42:52.391Z,29.50
2018-07-21T15:45:20.949Z,29.60
2018-07-21T15:47:49.821Z,29.60
2018-07-21T15:50:19.722Z,31.40
2018-07-21T15:52:49.099Z,33.40
2018-07-21T15:55:18.924Z,34.10
2018-07-21T15:57:48.981Z,34.30
2018-07-21T16:00:18.543Z,34.70
2018-07-21T16:02:47.943Z,34.90
2018-07-21T16:05:18.120Z,35.70
2018-07-21T16:07:46.748Z,35.90
2018-07-21T16:10:15.413Z,36.60
2018-07-21T16:12:44.431Z,36.80
2018-07-21T16:15:13.148Z,37.00
2018-07-21T16:17:41.854Z,37.30
2018-07-21T16:20:10.632Z,38.30
2018-07-21T16:22:39.217Z,37.80
2018-07-21T16:25:07.853Z,38.60
2018-07-21T16:27:36.498Z,37.90
2018-07-21T16:30:05.859Z,38.30
2018-07-21T16:32:34.434Z,38.80
2018-07-21T16:35:03.004Z,39.40
2018-07-21T16:37:31.617Z,39.70
2018-07-21T16:40:00.478Z,39.60
2018-07-21T16:42:30.137Z,39.50
2018-07-21T16:44:58.759Z,40.20
2018-07-21T16:47:28.379Z,40.40
2018-07-21T16:49:56.996Z,39.90
2018-07-21T17:25:16.285Z,41.30
2018-07-21T17:30:38.553Z,40.90
2018-07-21T17:33:08.797Z,41.10
2018-07-21T17:35:37.459Z,41.20
2018-07-21T17:40:34.437Z,41.00
2018-07-21T17:43:21.101Z,41.20
2018-07-21T17:46:00.616Z,41.40
2018-07-21T17:54:30.261Z,42.10
2018-07-21T17:57:08.455Z,42.20
2018-07-21T18:32:51.672Z,44.10
2018-07-21T19:11:57.336Z,44.40
2018-07-21T19:38:51.441Z,47.70
2018-07-21T19:41:25.322Z,47.90
2018-07-21T19:43:54.054Z,47.80
2018-07-21T19:46:22.780Z,47.80
2018-07-21T19:48:51.389Z,47.80
2018-07-21T19:51:20.724Z,47.70
2018-07-21T19:53:52.351Z,47.20
2018-07-21T19:56:23.014Z,47.60
2018-07-21T21:52:32.547Z,51.50
2018-07-21T22:05:18.025Z,50.40
2018-07-21T22:12:15.449Z,50.70
2018-07-21T22:14:58.078Z,50.80
2018-07-21T22:17:46.878Z,51.90
2018-07-21T22:20:25.860Z,52.50
2018-07-21T22:26:07.563Z,51.60
2018-07-21T22:28:50.958Z,50.80
2018-07-21T22:34:42.224Z,50.50
2018-07-21T22:40:12.256Z,50.30
2018-07-21T22:42:40.763Z,50.30
2018-07-21T22:46:00.226Z,50.50
2018-07-21T22:51:41.470Z,50.50
2018-07-21T23:05:29.623Z,51.10
2018-07-21T23:07:59.744Z,50.80
2018-07-21T23:10:31.161Z,50.70
2018-07-21T23:13:02.218Z,50.40
2018-07-21T23:20:39.989Z,50.00
2018-07-21T23:23:09.320Z,50.00
2018-07-21T23:25:41.940Z,49.80
2018-07-21T23:28:11.282Z,49.80
2018-07-21T23:30:42.692Z,49.70
2018-07-21T23:33:15.838Z,49.60
2018-07-21T23:38:12.618Z,49.20
2018-07-21T23:54:28.288Z,50.90
2018-07-21T23:56:56.988Z,50.50
2018-07-21T23:59:26.165Z,50.40
